Terminal Aerodrome Forecast
Issued by NWS

Current Version | Previous Version | Text Only | Print | Product List | Glossary On
Versions: 1 2 3 4 5 6 7 8 9 10 11 12 13 14 15 16 17
332
FTUS41 KLWX 271126
TAFMTN
TAF
KMTN 271126Z 2712/2812 01004KT P6SM BKN050
     FM271900 10004KT P6SM BKN050
     FM280200 VRB03KT P6SM FEW060 SCT100
     FM280800 00000KT P6SM BKN100=

USA.gov is the U.S. government's official web portal to all federal, state and local government web resources and services.